Time;durP1;ratioP1;P1;durP2;ratioP2;P2;SDS_P1;SDS_P2;PMS_P1;PMS_P2;Temp;Humidity;BMP_temperature;BMP_pressure;BME280_temperature;BME280_humidity;BME280_pressure;Samples;Min_cycle;Max_cycle;Signal;HPM_P1;HPM_P2
2023/03/02 00:01:25;;;;;;;0.50;0.40;;;1.20;99.90;;;;;;5059083;28;20349;-77
2023/03/02 00:03:52;;;;;;;1.17;1.15;;;1.20;99.90;;;;;;5060931;28;20281;-76
2023/03/02 00:06:21;;;;;;;0.75;0.75;;;1.20;99.90;;;;;;5058367;28;20301;-77
2023/03/02 00:08:48;;;;;;;0.50;0.50;;;1.10;99.90;;;;;;5059416;28;20198;-77
2023/03/02 00:11:15;;;;;;;0.50;0.50;;;1.10;99.90;;;;;;5058690;28;20283;-76
2023/03/02 00:13:43;;;;;;;0.50;0.50;;;1.00;99.90;;;;;;5059063;28;20245;-76
2023/03/02 00:16:10;;;;;;;1.38;0.65;;;1.00;99.90;;;;;;5058092;28;20226;-77
2023/03/02 00:18:37;;;;;;;0.50;0.50;;;1.00;99.90;;;;;;5058798;28;20237;-77
2023/03/02 00:21:04;;;;;;;0.60;0.60;;;1.10;99.90;;;;;;5058682;28;20235;-77
2023/03/02 00:23:32;;;;;;;1.02;0.85;;;1.10;99.90;;;;;;5058488;28;20301;-76
2023/03/02 00:26:00;;;;;;;1.95;0.73;;;1.10;99.90;;;;;;5058975;28;20282;-77
2023/03/02 00:28:28;;;;;;;0.73;0.73;;;1.10;99.90;;;;;;5057866;28;20229;-77
2023/03/02 00:30:55;;;;;;;2.70;1.73;;;1.00;99.90;;;;;;5058465;28;20225;-77
2023/03/02 00:33:22;;;;;;;2.15;1.80;;;1.10;99.90;;;;;;5059151;28;20650;-76
2023/03/02 00:35:49;;;;;;;0.50;0.50;;;1.10;99.90;;;;;;5058608;28;20279;-76
2023/03/02 00:38:15;;;;;;;2.58;0.90;;;1.00;99.90;;;;;;5057998;28;20286;-77
2023/03/02 00:40:46;;;;;;;0.50;0.50;;;1.00;99.90;;;;;;5057707;28;20229;-75
2023/03/02 00:43:13;;;;;;;0.55;0.55;;;1.00;99.90;;;;;;5058670;28;20256;-76
2023/03/02 00:45:40;;;;;;;1.23;1.13;;;1.00;99.90;;;;;;5058354;28;20305;-76
2023/03/02 00:48:07;;;;;;;0.50;0.50;;;0.90;99.90;;;;;;5057931;28;20187;-76
2023/03/02 00:50:39;;;;;;;1.77;1.27;;;0.90;99.90;;;;;;5058554;28;20191;-78
2023/03/02 00:53:06;;;;;;;0.73;0.60;;;0.80;99.90;;;;;;5058994;28;20210;-78
2023/03/02 00:55:34;;;;;;;0.50;0.47;;;0.80;99.90;;;;;;5058904;28;20199;-77
2023/03/02 00:58:02;;;;;;;0.50;0.50;;;0.70;99.90;;;;;;5058763;28;20222;-78
2023/03/02 01:00:29;;;;;;;0.50;0.50;;;0.60;99.90;;;;;;5059646;28;20632;-76
2023/03/02 01:02:57;;;;;;;0.50;0.50;;;0.70;99.90;;;;;;5059153;28;20245;-74
2023/03/02 01:05:24;;;;;;;6.47;4.50;;;0.60;99.90;;;;;;5058887;28;20214;-76
2023/03/02 01:07:52;;;;;;;0.50;0.40;;;0.70;99.90;;;;;;5057549;28;20199;-77
2023/03/02 01:10:19;;;;;;;0.50;0.50;;;0.70;99.90;;;;;;5059188;28;20550;-76
2023/03/02 01:12:46;;;;;;;1.17;0.93;;;0.60;99.90;;;;;;5058160;28;20255;-76
2023/03/02 01:15:14;;;;;;;0.50;0.50;;;0.60;99.90;;;;;;5058256;28;20187;-77
2023/03/02 01:17:42;;;;;;;0.65;0.65;;;0.60;99.90;;;;;;5057982;28;20205;-76
2023/03/02 01:20:10;;;;;;;0.50;0.50;;;0.50;99.90;;;;;;5050216;28;20286;-77
2023/03/02 01:22:37;;;;;;;0.50;0.50;;;0.50;99.90;;;;;;5058361;28;20646;-76
2023/03/02 01:25:05;;;;;;;0.55;0.55;;;0.50;99.90;;;;;;5058974;28;20238;-76
2023/03/02 01:27:32;;;;;;;8.32;1.98;;;0.40;99.90;;;;;;5059064;28;20240;-77
2023/03/02 01:29:59;;;;;;;0.50;0.50;;;0.40;99.90;;;;;;5058611;28;20222;-77
2023/03/02 01:32:28;;;;;;;0.50;0.50;;;0.40;99.90;;;;;;5059919;28;20218;-77
2023/03/02 01:34:54;;;;;;;0.50;0.47;;;0.40;99.90;;;;;;5057660;28;20375;-77
2023/03/02 01:37:21;;;;;;;0.50;0.50;;;0.40;99.90;;;;;;5055201;28;20281;-77
2023/03/02 01:39:48;;;;;;;0.50;0.50;;;0.30;99.90;;;;;;5055260;28;20297;-77
2023/03/02 01:43:08;;;;;;;4.70;2.55;;;0.30;99.90;;;;;;5055152;28;20221;-77
2023/03/02 01:45:50;;;;;;;3.30;3.10;;;0.30;99.90;;;;;;5051435;28;20246;-77
2023/03/02 01:48:22;;;;;;;0.50;0.50;;;0.20;99.90;;;;;;5057159;28;20182;-77
2023/03/02 01:50:49;;;;;;;0.50;0.50;;;0.20;99.90;;;;;;5055020;28;20186;-77
2023/03/02 01:53:17;;;;;;;1.42;1.42;;;0.20;99.90;;;;;;5055839;28;20653;-77
2023/03/02 01:55:45;;;;;;;0.50;0.50;;;0.20;99.90;;;;;;5055904;28;20225;-77
2023/03/02 01:58:15;;;;;;;1.02;0.82;;;0.20;99.90;;;;;;5047678;28;20658;-77
2023/03/02 02:00:43;;;;;;;0.50;0.50;;;0.20;99.90;;;;;;5056126;28;20194;-77
2023/03/02 02:03:14;;;;;;;0.50;0.50;;;0.10;99.90;;;;;;5055793;28;20242;-77
2023/03/02 02:05:44;;;;;;;1.15;1.05;;;0.10;99.90;;;;;;5059824;28;20218;-75
2023/03/02 02:08:11;;;;;;;0.50;0.50;;;0.10;99.90;;;;;;5060411;28;20194;-76
2023/03/02 02:10:39;;;;;;;0.50;0.50;;;0.10;99.90;;;;;;5060003;28;20197;-77
2023/03/02 02:13:08;;;;;;;1.15;1.13;;;0.00;99.90;;;;;;5059285;28;20657;-76
2023/03/02 02:15:35;;;;;;;0.50;0.50;;;-0.10;99.90;;;;;;5057596;28;20273;-76
2023/03/02 02:18:02;;;;;;;0.50;0.50;;;-0.10;99.90;;;;;;5057607;28;20230;-76
2023/03/02 02:20:35;;;;;;;0.50;0.50;;;-0.20;99.90;;;;;;5059997;28;20225;-76
2023/03/02 02:23:18;;;;;;;0.50;0.50;;;-0.20;99.90;;;;;;5061293;28;20278;-76
2023/03/02 02:25:58;;;;;;;0.50;0.50;;;-0.30;99.90;;;;;;5061181;28;20225;-76
2023/03/02 02:28:29;;;;;;;0.50;0.50;;;-0.30;99.90;;;;;;5060895;28;20218;-77
2023/03/02 02:31:06;;;;;;;0.98;0.98;;;-0.30;99.90;;;;;;5061933;28;20191;-77
2023/03/02 02:33:34;;;;;;;0.50;0.40;;;-0.30;99.90;;;;;;5062006;28;20581;-77
2023/03/02 02:36:06;;;;;;;0.50;0.50;;;-0.40;99.90;;;;;;5062233;28;20535;-77
2023/03/02 02:38:34;;;;;;;0.50;0.50;;;-0.40;99.90;;;;;;5062060;28;20270;-76
2023/03/02 02:41:06;;;;;;;0.50;0.50;;;-0.50;99.90;;;;;;5062115;28;20632;-77
2023/03/02 02:43:33;;;;;;;0.50;0.50;;;-0.50;99.90;;;;;;5061780;28;20281;-76
2023/03/02 02:46:01;;;;;;;0.50;0.47;;;-0.50;99.90;;;;;;5062048;28;20206;-77
2023/03/02 02:48:30;;;;;;;0.50;0.47;;;-0.50;99.90;;;;;;5061420;28;20237;-77
2023/03/02 02:51:01;;;;;;;0.50;0.40;;;-0.60;99.90;;;;;;5061883;28;20248;-77
2023/03/02 02:53:33;;;;;;;0.50;0.50;;;-0.70;99.90;;;;;;5062176;28;20225;-77
2023/03/02 02:56:04;;;;;;;0.50;0.40;;;-0.70;99.90;;;;;;5061826;28;20281;-76
2023/03/02 02:58:35;;;;;;;0.50;0.50;;;-0.60;99.90;;;;;;5061493;28;20187;-76
2023/03/02 03:01:02;;;;;;;0.50;0.50;;;-0.60;99.90;;;;;;5061919;28;20281;-75
2023/03/02 03:03:32;;;;;;;0.50;0.50;;;-0.60;99.90;;;;;;5060140;28;20260;-77
2023/03/02 03:06:02;;;;;;;0.50;0.50;;;-0.60;99.90;;;;;;5061962;28;20218;-77
2023/03/02 03:09:02;;;;;;;0.50;0.50;;;-0.60;99.90;;;;;;5061050;28;20260;-77
2023/03/02 03:11:33;;;;;;;0.90;0.70;;;-0.60;99.90;;;;;;5039482;28;20202;-76
2023/03/02 03:14:07;;;;;;;0.80;0.60;;;-0.60;99.90;;;;;;5038754;28;20246;-74
2023/03/02 03:16:35;;;;;;;0.50;0.45;;;-0.60;99.90;;;;;;5038320;28;20203;-76
2023/03/02 03:19:07;;;;;;;0.50;0.40;;;-0.60;99.90;;;;;;5039101;28;20205;-76
2023/03/02 03:21:35;;;;;;;0.70;0.70;;;-0.70;99.90;;;;;;5038063;28;20207;-77
2023/03/02 03:24:02;;;;;;;0.50;0.50;;;-0.60;99.90;;;;;;5037042;28;20721;-78
2023/03/02 03:26:30;;;;;;;1.05;1.05;;;-0.70;99.90;;;;;;5037459;28;20295;-76
2023/03/02 03:28:57;;;;;;;0.50;0.50;;;-0.60;99.90;;;;;;5037941;28;20290;-75
2023/03/02 03:31:24;;;;;;;0.50;0.50;;;-0.60;99.90;;;;;;5037355;28;20200;-76
2023/03/02 03:33:52;;;;;;;0.80;0.80;;;-0.60;99.90;;;;;;5037944;28;20298;-76
2023/03/02 03:36:18;;;;;;;0.50;0.50;;;-0.60;99.90;;;;;;5036874;28;20195;-77
2023/03/02 03:38:45;;;;;;;0.50;0.50;;;-0.50;99.90;;;;;;5037304;28;20195;-76
2023/03/02 03:41:12;;;;;;;0.50;0.50;;;-0.50;99.90;;;;;;5038165;28;20714;-76
2023/03/02 03:43:41;;;;;;;0.50;0.50;;;-0.60;99.90;;;;;;5059027;28;20272;-78
2023/03/02 03:46:07;;;;;;;0.70;0.70;;;-0.60;99.90;;;;;;5059363;28;20218;-76
2023/03/02 03:48:34;;;;;;;0.50;0.50;;;-0.60;99.90;;;;;;5059300;28;20226;-76
2023/03/02 03:51:01;;;;;;;0.60;0.60;;;-0.60;99.90;;;;;;5058936;28;20190;-75
2023/03/02 03:53:28;;;;;;;0.50;0.40;;;-0.50;99.90;;;;;;5058895;28;20294;-76
2023/03/02 03:55:56;;;;;;;3.03;2.90;;;-0.60;99.90;;;;;;5058659;28;20269;-76
2023/03/02 03:58:24;;;;;;;0.55;0.55;;;-0.50;99.90;;;;;;5058527;28;20191;-76
2023/03/02 04:00:52;;;;;;;0.50;0.50;;;-0.60;99.90;;;;;;5058901;28;20264;-76
2023/03/02 04:03:20;;;;;;;0.50;0.50;;;-0.50;99.90;;;;;;5059331;28;20216;-77
2023/03/02 04:05:46;;;;;;;0.50;0.40;;;-0.60;99.90;;;;;;5058646;28;20225;-75
2023/03/02 04:08:13;;;;;;;1.88;1.58;;;-0.50;99.90;;;;;;5058329;28;20191;-76
2023/03/02 04:10:41;;;;;;;0.50;0.50;;;-0.50;99.90;;;;;;5058086;28;20221;-76
2023/03/02 04:13:08;;;;;;;3.42;0.98;;;-0.50;99.90;;;;;;5058123;28;20250;-76
2023/03/02 04:15:35;;;;;;;0.50;0.50;;;-0.50;99.90;;;;;;5058746;28;20222;-76
2023/03/02 04:18:04;;;;;;;0.50;0.50;;;-0.60;99.90;;;;;;5058200;28;20203;-77
2023/03/02 04:20:31;;;;;;;0.50;0.40;;;-0.60;99.90;;;;;;5058022;28;20190;-76
2023/03/02 04:22:58;;;;;;;0.50;0.40;;;-0.60;99.90;;;;;;5059150;28;20219;-74
2023/03/02 04:25:27;;;;;;;1.08;1.08;;;-0.60;99.90;;;;;;5057449;28;20220;-76
2023/03/02 04:27:55;;;;;;;0.50;0.40;;;-0.60;99.90;;;;;;5056839;28;20190;-76
2023/03/02 04:30:24;;;;;;;1.95;1.25;;;-0.60;99.90;;;;;;5056941;28;20278;-76
2023/03/02 04:32:51;;;;;;;0.50;0.50;;;-0.60;99.90;;;;;;5057056;28;20658;-75
2023/03/02 04:35:20;;;;;;;0.50;0.50;;;-0.70;99.90;;;;;;5056800;28;20214;-75
2023/03/02 04:37:47;;;;;;;0.50;0.50;;;-0.60;99.90;;;;;;5056733;28;20634;-75
2023/03/02 04:40:15;;;;;;;1.30;1.30;;;-0.70;99.90;;;;;;5057151;28;20199;-75
2023/03/02 04:42:43;;;;;;;1.05;0.80;;;-0.60;99.90;;;;;;5056093;28;20219;-76
2023/03/02 04:45:11;;;;;;;1.40;1.30;;;-0.70;99.90;;;;;;5056546;28;20218;-76
2023/03/02 04:47:38;;;;;;;0.52;0.50;;;-0.70;99.90;;;;;;5056938;28;20269;-77
2023/03/02 04:50:06;;;;;;;0.57;0.57;;;-0.70;99.90;;;;;;5055972;28;20569;-77
2023/03/02 04:52:34;;;;;;;0.50;0.50;;;-0.70;99.90;;;;;;5056950;28;20221;-74
2023/03/02 04:55:01;;;;;;;0.60;0.60;;;-0.70;99.90;;;;;;5058618;28;20191;-74
2023/03/02 04:57:28;;;;;;;0.50;0.50;;;-0.70;99.90;;;;;;5058446;28;20190;-77
2023/03/02 04:59:55;;;;;;;2.25;2.15;;;-0.70;99.90;;;;;;5058725;28;20745;-76
2023/03/02 05:02:22;;;;;;;0.50;0.50;;;-0.70;99.90;;;;;;5058468;28;20222;-77
2023/03/02 05:04:49;;;;;;;2.38;1.08;;;-0.60;99.90;;;;;;5058147;28;20580;-76
2023/03/02 05:07:16;;;;;;;0.50;0.50;;;-0.60;99.90;;;;;;5054368;28;20221;-76
2023/03/02 05:09:44;;;;;;;2.38;1.65;;;-0.70;99.90;;;;;;5054628;28;20535;-78
2023/03/02 05:12:11;;;;;;;0.50;0.50;;;-0.60;99.90;;;;;;5053614;28;20214;-78
2023/03/02 05:14:38;;;;;;;0.50;0.50;;;-0.60;99.90;;;;;;5054879;28;20190;-77
2023/03/02 05:17:04;;;;;;;0.50;0.50;;;-0.60;99.90;;;;;;5054870;28;20194;-74
2023/03/02 05:19:31;;;;;;;0.50;0.50;;;-0.70;99.90;;;;;;5055640;28;20195;-77
2023/03/02 05:21:58;;;;;;;0.50;0.50;;;-0.70;99.90;;;;;;5057652;28;20198;-76
2023/03/02 05:24:25;;;;;;;0.50;0.50;;;-0.70;99.90;;;;;;5058031;28;20243;-78
2023/03/02 05:26:54;;;;;;;0.50;0.50;;;-0.70;99.90;;;;;;5057260;28;20222;-77
2023/03/02 05:29:20;;;;;;;0.50;0.50;;;-0.80;99.90;;;;;;5057820;28;20234;-76
2023/03/02 05:31:48;;;;;;;0.50;0.50;;;-0.80;99.90;;;;;;5058592;28;20206;-77
2023/03/02 05:34:16;;;;;;;3.25;2.47;;;-0.80;99.90;;;;;;5057497;28;20264;-75
2023/03/02 05:36:44;;;;;;;0.50;0.50;;;-0.70;99.90;;;;;;5056769;28;20183;-77
2023/03/02 05:39:12;;;;;;;0.50;0.50;;;-0.80;99.90;;;;;;5055456;28;20199;-76
2023/03/02 05:41:41;;;;;;;0.50;0.50;;;-0.80;99.90;;;;;;5059452;28;20191;-76
2023/03/02 05:44:10;;;;;;;0.50;0.50;;;-0.80;99.90;;;;;;5059226;28;20218;-77
2023/03/02 05:46:38;;;;;;;0.50;0.50;;;-0.80;99.90;;;;;;5059813;28;20765;-78
2023/03/02 05:49:05;;;;;;;0.50;0.50;;;-0.80;99.90;;;;;;5060522;28;20199;-77
2023/03/02 05:51:32;;;;;;;0.75;0.73;;;-0.80;99.90;;;;;;5059394;28;20741;-77
2023/03/02 05:53:58;;;;;;;0.50;0.50;;;-0.80;99.90;;;;;;5060524;28;20218;-76
2023/03/02 05:56:25;;;;;;;0.50;0.50;;;-0.80;99.90;;;;;;5059105;28;20213;-76
2023/03/02 05:58:52;;;;;;;1.38;1.30;;;-0.80;99.90;;;;;;5056818;28;20286;-78
2023/03/02 06:01:21;;;;;;;0.50;0.50;;;-0.80;99.90;;;;;;5061794;28;20194;-78
2023/03/02 06:03:47;;;;;;;0.70;0.70;;;-0.80;99.90;;;;;;5060462;28;20713;-76
2023/03/02 06:06:14;;;;;;;1.83;1.73;;;-0.80;99.90;;;;;;5061207;28;20214;-76
2023/03/02 06:08:43;;;;;;;0.50;0.43;;;-0.80;99.90;;;;;;5060804;28;20195;-77
2023/03/02 06:11:11;;;;;;;2.25;1.25;;;-0.80;99.90;;;;;;5060494;28;20198;-77
2023/03/02 06:13:38;;;;;;;0.50;0.50;;;-0.80;99.90;;;;;;5057559;28;20254;-76
2023/03/02 06:16:05;;;;;;;0.50;0.50;;;-0.70;99.90;;;;;;5058781;28;20229;-77
2023/03/02 06:18:34;;;;;;;0.50;0.47;;;-0.70;99.90;;;;;;5060598;28;20222;-76
2023/03/02 06:21:01;;;;;;;0.50;0.45;;;-0.70;99.90;;;;;;5060400;28;20262;-78
2023/03/02 06:23:28;;;;;;;0.50;0.50;;;-0.70;99.90;;;;;;5060990;28;20221;-78
2023/03/02 06:25:56;;;;;;;0.50;0.50;;;-0.70;99.90;;;;;;5062136;28;20218;-79
2023/03/02 06:28:24;;;;;;;0.50;0.50;;;-0.70;99.90;;;;;;5061360;28;20632;-79
2023/03/02 06:30:51;;;;;;;0.50;0.50;;;-0.70;99.90;;;;;;5061170;28;20277;-77
2023/03/02 06:33:20;;;;;;;0.50;0.47;;;-0.70;99.90;;;;;;5059700;28;20215;-77
2023/03/02 06:35:49;;;;;;;0.50;0.50;;;-0.70;99.90;;;;;;5058102;28;20191;-79
2023/03/02 06:38:16;;;;;;;0.50;0.50;;;-0.70;99.90;;;;;;5058479;28;20195;-79
2023/03/02 06:40:43;;;;;;;0.50;0.50;;;-0.70;99.90;;;;;;5058217;28;20294;-78
2023/03/02 06:43:10;;;;;;;0.50;0.50;;;-0.70;99.90;;;;;;5059145;28;20214;-77
2023/03/02 06:45:37;;;;;;;0.50;0.50;;;-0.70;99.90;;;;;;5058024;28;20414;-79
2023/03/02 06:48:04;;;;;;;2.05;1.85;;;-0.70;99.90;;;;;;5060469;28;20711;-78
2023/03/02 06:50:32;;;;;;;0.50;0.40;;;-0.60;99.90;;;;;;5057345;28;20190;-78
2023/03/02 06:53:00;;;;;;;0.50;0.40;;;-0.50;99.90;;;;;;5057904;28;20282;-79
2023/03/02 06:55:27;;;;;;;0.50;0.50;;;-0.40;99.90;;;;;;5057918;28;20186;-78
2023/03/02 06:57:54;;;;;;;0.50;0.50;;;-0.30;99.90;;;;;;5056728;28;20719;-77
2023/03/02 07:00:26;;;;;;;0.50;0.50;;;-0.20;99.90;;;;;;5056762;28;20696;-78
2023/03/02 07:02:54;;;;;;;0.70;0.70;;;-0.10;99.90;;;;;;5058387;28;20242;-79
2023/03/02 07:05:23;;;;;;;0.50;0.45;;;0.00;99.90;;;;;;5058814;28;20717;-78
2023/03/02 07:07:50;;;;;;;0.50;0.50;;;0.10;99.90;;;;;;5059627;28;20209;-78
2023/03/02 07:10:18;;;;;;;0.50;0.50;;;0.30;99.90;;;;;;5059823;28;20286;-79
2023/03/02 07:12:45;;;;;;;2.70;2.55;;;0.40;99.90;;;;;;5059190;28;20230;-78
2023/03/02 07:15:13;;;;;;;0.50;0.50;;;0.60;99.90;;;;;;5059656;28;20622;-79
2023/03/02 07:17:42;;;;;;;0.50;0.50;;;0.70;99.90;;;;;;5059317;28;20186;-79
2023/03/02 07:20:10;;;;;;;0.50;0.50;;;0.70;99.90;;;;;;5058930;28;20244;-78
2023/03/02 07:22:37;;;;;;;0.50;0.50;;;0.90;99.90;;;;;;5061207;28;20653;-78
2023/03/02 07:25:05;;;;;;;5.30;1.35;;;0.90;99.90;;;;;;5060915;28;20245;-77
2023/03/02 07:27:33;;;;;;;4.85;1.85;;;1.00;99.90;;;;;;5061132;28;20267;-79
2023/03/02 07:30:00;;;;;;;0.50;0.50;;;1.10;99.90;;;;;;5060872;28;20253;-78
2023/03/02 07:32:27;;;;;;;8.27;1.67;;;1.20;99.90;;;;;;5060208;28;20210;-78
2023/03/02 07:34:54;;;;;;;0.60;0.60;;;1.30;99.90;;;;;;5058546;28;20571;-77
2023/03/02 07:37:21;;;;;;;0.50;0.50;;;1.30;99.90;;;;;;5057692;28;20201;-79
2023/03/02 07:39:48;;;;;;;0.60;0.60;;;1.40;99.90;;;;;;5058257;28;20636;-79
2023/03/02 07:42:17;;;;;;;0.50;0.40;;;1.70;99.90;;;;;;5058955;28;20670;-79
2023/03/02 07:44:45;;;;;;;1.80;1.30;;;2.20;99.90;;;;;;5059184;28;20302;-78
2023/03/02 07:47:12;;;;;;;0.80;0.60;;;2.80;99.90;;;;;;5059098;28;20215;-77
2023/03/02 07:49:39;;;;;;;0.60;0.60;;;3.20;99.90;;;;;;5060632;28;20191;-79
2023/03/02 07:52:05;;;;;;;1.42;1.25;;;3.80;99.90;;;;;;5065582;28;20226;-78
2023/03/02 07:54:32;;;;;;;0.90;0.90;;;4.50;99.90;;;;;;5049937;28;20229;-78
2023/03/02 07:57:00;;;;;;;0.50;0.40;;;5.10;99.90;;;;;;5058533;28;20218;-78
2023/03/02 07:59:28;;;;;;;0.50;0.40;;;5.40;99.90;;;;;;5058277;28;20202;-77
2023/03/02 08:01:57;;;;;;;0.50;0.50;;;6.20;99.90;;;;;;5060278;28;20206;-80
2023/03/02 08:04:24;;;;;;;0.50;0.50;;;7.10;97.90;;;;;;5057632;28;20191;-78
2023/03/02 08:06:52;;;;;;;0.60;0.60;;;7.50;90.30;;;;;;5058802;28;20218;-78
2023/03/02 08:09:18;;;;;;;1.00;0.88;;;7.60;87.30;;;;;;5057382;28;20241;-78
2023/03/02 08:11:46;;;;;;;0.57;0.57;;;7.90;85.50;;;;;;5057848;28;20207;-80
2023/03/02 08:14:13;;;;;;;1.00;1.00;;;8.80;85.00;;;;;;5059605;28;20222;-78
2023/03/02 08:16:40;;;;;;;0.50;0.40;;;10.00;76.70;;;;;;5059143;28;20190;-77
2023/03/02 08:19:09;;;;;;;4.27;2.17;;;11.20;72.50;;;;;;5058060;28;20207;-79
2023/03/02 08:21:36;;;;;;;2.00;1.47;;;12.60;67.90;;;;;;5057425;28;20441;-78
2023/03/02 08:24:03;;;;;;;0.77;0.73;;;13.10;59.40;;;;;;5055584;28;20461;-74
2023/03/02 08:26:30;;;;;;;0.50;0.40;;;13.30;59.10;;;;;;5056490;28;20916;-78
2023/03/02 08:28:57;;;;;;;0.60;0.50;;;13.30;57.40;;;;;;5057173;28;20441;-79
2023/03/02 08:31:24;;;;;;;3.40;1.37;;;14.00;55.00;;;;;;5059401;28;20528;-80
2023/03/02 08:33:51;;;;;;;1.37;0.77;;;14.30;53.30;;;;;;5061353;28;20520;-80
2023/03/02 08:36:19;;;;;;;0.93;0.83;;;14.20;52.60;;;;;;5067031;28;20429;-77
2023/03/02 08:38:47;;;;;;;1.27;0.70;;;14.70;52.10;;;;;;5058754;28;20443;-78
2023/03/02 08:41:16;;;;;;;1.27;1.03;;;14.90;51.40;;;;;;5055735;28;20847;-76
2023/03/02 08:43:43;;;;;;;0.50;0.40;;;15.10;50.60;;;;;;5057608;28;20461;-79
2023/03/02 08:46:12;;;;;;;0.87;0.80;;;15.80;50.20;;;;;;5056948;28;20471;-78
2023/03/02 08:48:39;;;;;;;1.73;1.63;;;16.30;49.50;;;;;;5057173;28;20488;-78
2023/03/02 08:51:08;;;;;;;0.70;0.50;;;16.60;48.50;;;;;;5055702;28;20451;-78
2023/03/02 08:53:39;;;;;;;0.67;0.50;;;16.90;48.10;;;;;;5055235;28;20452;-78
2023/03/02 08:56:15;;;;;;;2.47;2.27;;;17.40;47.80;;;;;;5054507;28;20444;-75
2023/03/02 08:58:42;;;;;;;0.73;0.70;;;18.00;46.40;;;;;;5054725;28;20502;-77
2023/03/02 09:01:13;;;;;;;0.80;0.77;;;18.60;45.70;;;;;;5054673;28;20429;-77
2023/03/02 09:03:40;;;;;;;1.70;1.60;;;19.60;45.70;;;;;;5050746;28;20464;-79
2023/03/02 09:06:07;;;;;;;0.50;0.40;;;20.20;43.80;;;;;;5057262;28;20473;-77
2023/03/02 09:08:34;;;;;;;3.10;2.47;;;20.60;43.10;;;;;;5056708;28;20434;-81
2023/03/02 09:11:02;;;;;;;0.70;0.70;;;20.70;42.60;;;;;;5057388;28;20441;-80
2023/03/02 09:13:29;;;;;;;0.50;0.30;;;20.20;42.10;;;;;;5056580;28;20903;-80
2023/03/02 09:15:56;;;;;;;1.63;1.53;;;19.20;41.50;;;;;;5057417;28;20497;-79
2023/03/02 09:18:23;;;;;;;2.50;1.03;;;18.70;42.80;;;;;;5057899;28;20508;-79
2023/03/02 09:20:50;;;;;;;4.73;0.90;;;18.90;41.90;;;;;;5057742;28;20509;-79
2023/03/02 09:23:17;;;;;;;0.50;0.40;;;18.90;42.50;;;;;;5057629;28;20802;-80
2023/03/02 09:25:46;;;;;;;0.50;0.40;;;18.50;42.30;;;;;;5057621;28;20441;-80
2023/03/02 09:28:15;;;;;;;2.60;2.00;;;18.80;42.90;;;;;;5057287;28;20928;-80
2023/03/02 09:30:42;;;;;;;1.00;1.00;;;19.40;43.10;;;;;;5056584;28;20437;-79
2023/03/02 09:33:09;;;;;;;0.50;0.30;;;19.40;41.50;;;;;;5057993;28;20460;-80
2023/03/02 09:35:38;;;;;;;4.20;2.33;;;19.30;43.90;;;;;;5056147;28;20445;-80
2023/03/02 09:38:05;;;;;;;1.53;0.87;;;19.00;40.60;;;;;;5055977;28;20433;-79
2023/03/02 09:40:38;;;;;;;1.20;1.03;;;18.80;41.20;;;;;;5055544;28;20529;-79
2023/03/02 09:43:17;;;;;;;2.97;2.87;;;18.00;42.60;;;;;;5055790;28;20837;-79
2023/03/02 09:46:00;;;;;;;0.60;0.50;;;18.70;42.60;;;;;;5056017;28;20439;-79
2023/03/02 09:48:40;;;;;;;0.67;0.67;;;19.10;42.60;;;;;;5056155;28;20519;-80
2023/03/02 09:51:23;;;;;;;1.57;1.37;;;19.30;42.60;;;;;;5052870;28;20437;-79
2023/03/02 09:53:57;;;;;;;0.50;0.30;;;18.40;42.00;;;;;;5056154;28;20463;-81
2023/03/02 09:56:24;;;;;;;0.60;0.60;;;18.40;41.80;;;;;;5054921;28;20524;-79
2023/03/02 09:58:58;;;;;;;0.50;0.50;;;18.10;41.80;;;;;;5055442;28;20469;-78
2023/03/02 10:01:36;;;;;;;0.70;0.70;;;17.80;41.10;;;;;;5053966;28;20882;-82
2023/03/02 10:04:13;;;;;;;1.50;1.40;;;17.40;42.20;;;;;;5055430;28;20475;-78
2023/03/02 10:06:40;;;;;;;0.50;0.50;;;17.10;42.80;;;;;;5056671;28;20500;-80
2023/03/02 10:09:08;;;;;;;0.50;0.40;;;16.30;42.70;;;;;;5059726;28;21171;-79
2023/03/02 10:11:44;;;;;;;0.70;0.60;;;16.00;43.70;;;;;;5057096;28;20482;-80
2023/03/02 10:14:18;;;;;;;1.83;0.87;;;15.20;43.00;;;;;;5060433;28;20480;-79
2023/03/02 10:16:48;;;;;;;0.90;0.90;;;15.10;43.70;;;;;;5058549;28;20444;-79
2023/03/02 10:19:21;;;;;;;0.50;0.40;;;14.40;44.00;;;;;;5058315;28;20874;-79
2023/03/02 10:21:51;;;;;;;3.43;1.07;;;14.50;45.60;;;;;;5057930;28;20493;-80
2023/03/02 10:24:29;;;;;;;0.50;0.40;;;14.60;46.50;;;;;;5059433;28;20498;-80
2023/03/02 10:27:01;;;;;;;0.50;0.40;;;14.60;46.20;;;;;;5062014;28;20477;-79
2023/03/02 10:29:47;;;;;;;0.50;0.40;;;14.80;45.80;;;;;;5060353;28;20473;-80
2023/03/02 10:32:21;;;;;;;0.50;0.30;;;15.20;45.50;;;;;;5058742;28;21049;-80
2023/03/02 10:34:49;;;;;;;0.60;0.57;;;15.50;45.70;;;;;;5058869;28;20447;-80
2023/03/02 10:37:20;;;;;;;0.50;0.30;;;16.00;44.10;;;;;;5064385;28;20433;-80
2023/03/02 10:39:47;;;;;;;0.93;0.83;;;16.20;44.60;;;;;;5059611;28;20481;-79
2023/03/02 10:42:18;;;;;;;1.57;1.47;;;15.80;42.90;;;;;;5060084;28;20441;-80
2023/03/02 10:44:50;;;;;;;2.87;2.20;;;15.60;43.50;;;;;;5060323;28;20477;-80
2023/03/02 10:47:23;;;;;;;2.90;1.63;;;15.50;44.60;;;;;;5063607;28;20476;-79
2023/03/02 10:49:50;;;;;;;0.87;0.80;;;15.50;44.20;;;;;;5065106;28;20441;-79
2023/03/02 10:52:19;;;;;;;3.60;3.40;;;15.70;43.50;;;;;;5070424;28;20481;-80
2023/03/02 10:54:46;;;;;;;0.60;0.60;;;16.10;43.50;;;;;;5071404;28;20437;-79
2023/03/02 10:57:35;;;;;;;2.10;0.90;;;16.70;43.40;;;;;;5066866;28;20509;-78
2023/03/02 11:00:13;;;;;;;1.90;1.80;;;16.80;43.40;;;;;;5059727;28;20445;-79
2023/03/02 11:02:49;;;;;;;8.50;3.40;;;17.50;43.20;;;;;;5059948;28;20524;-78
2023/03/02 11:05:27;;;;;;;0.80;0.70;;;18.00;41.90;;;;;;5060321;28;20444;-79
2023/03/02 11:07:56;;;;;;;0.90;0.70;;;18.00;41.20;;;;;;5057039;28;20476;-77
2023/03/02 11:10:25;;;;;;;1.00;1.00;;;17.60;41.50;;;;;;5056827;28;20910;-78
2023/03/02 11:12:53;;;;;;;0.50;0.30;;;17.90;41.60;;;;;;5056098;28;20476;-78
2023/03/02 11:15:25;;;;;;;0.90;0.70;;;18.10;41.30;;;;;;5057258;28;20925;-79
2023/03/02 11:18:10;;;;;;;1.13;1.03;;;17.80;42.80;;;;;;5057012;28;20512;-77
2023/03/02 11:20:41;;;;;;;0.50;0.40;;;18.30;42.30;;;;;;5055605;28;20532;-79
2023/03/02 11:23:23;;;;;;;0.80;0.63;;;18.30;43.40;;;;;;5057593;28;20457;-78
2023/03/02 11:25:54;;;;;;;0.50;0.33;;;18.60;42.00;;;;;;5047864;28;20443;-77
2023/03/02 11:28:31;;;;;;;0.50;0.50;;;18.90;42.00;;;;;;5056393;28;20499;-79
2023/03/02 11:31:02;;;;;;;3.90;2.73;;;19.00;43.10;;;;;;5058117;28;20491;-79
2023/03/02 11:33:36;;;;;;;2.57;2.07;;;19.60;42.70;;;;;;5058677;28;21057;-77
2023/03/02 11:36:08;;;;;;;0.50;0.30;;;19.70;41.60;;;;;;5059227;28;20901;-80
2023/03/02 11:38:45;;;;;;;1.03;0.93;;;19.80;43.00;;;;;;5059450;28;20472;-79
2023/03/02 11:41:23;;;;;;;1.27;1.17;;;20.00;42.00;;;;;;5062314;28;20434;-79
2023/03/02 11:43:53;;;;;;;1.43;1.43;;;19.60;40.90;;;;;;5061507;28;20453;-79
2023/03/02 11:46:25;;;;;;;2.93;1.17;;;19.50;41.20;;;;;;5060414;28;20437;-81
2023/03/02 11:48:56;;;;;;;3.47;1.80;;;20.00;41.50;;;;;;5052139;28;20605;-81
2023/03/02 11:51:26;;;;;;;2.40;1.73;;;19.60;41.20;;;;;;5059156;28;20460;-79
2023/03/02 11:53:57;;;;;;;0.60;0.50;;;19.10;41.20;;;;;;5058986;28;20457;-80
2023/03/02 11:56:25;;;;;;;0.60;0.50;;;19.00;42.50;;;;;;5058618;28;20443;-78
2023/03/02 11:58:56;;;;;;;0.60;0.40;;;19.00;42.30;;;;;;5058770;28;20524;-80
2023/03/02 12:01:28;;;;;;;0.70;0.43;;;19.60;43.50;;;;;;5059079;28;20430;-79
2023/03/02 12:04:05;;;;;;;0.50;0.40;;;19.50;41.20;;;;;;5058416;28;20560;-79
2023/03/02 12:06:37;;;;;;;0.50;0.50;;;19.30;41.40;;;;;;5057636;28;20437;-79
2023/03/02 12:09:12;;;;;;;0.50;0.30;;;18.90;42.40;;;;;;5057721;28;20429;-79
2023/03/02 12:11:45;;;;;;;0.50;0.30;;;19.10;42.60;;;;;;5057645;28;20676;-79
2023/03/02 12:14:28;;;;;;;0.50;0.50;;;19.00;42.40;;;;;;5056902;28;20485;-80
2023/03/02 12:17:19;;;;;;;0.60;0.50;;;18.80;42.20;;;;;;5050270;28;20502;-79
2023/03/02 12:19:46;;;;;;;0.50;0.40;;;18.90;43.40;;;;;;5059691;28;20595;-80
2023/03/02 12:22:14;;;;;;;0.50;0.47;;;18.50;42.60;;;;;;5063167;28;20505;-79
2023/03/02 12:24:47;;;;;;;2.00;0.70;;;19.40;42.60;;;;;;5062414;28;20543;-80
2023/03/02 12:27:26;;;;;;;0.50;0.40;;;19.30;41.80;;;;;;5060899;28;20461;-80
2023/03/02 12:30:08;;;;;;;0.50;0.40;;;18.90;41.60;;;;;;5059896;28;20515;-80
2023/03/02 12:32:36;;;;;;;0.50;0.40;;;19.10;42.00;;;;;;5058222;28;20508;-79
2023/03/02 12:35:11;;;;;;;1.47;1.37;;;19.50;42.90;;;;;;5060880;28;20437;-80
2023/03/02 12:37:45;;;;;;;1.13;1.03;;;19.70;42.30;;;;;;5060542;28;20519;-78
2023/03/02 12:40:28;;;;;;;0.50;0.30;;;19.50;40.90;;;;;;5060528;28;20439;-77
2023/03/02 12:43:25;;;;;;;0.50;0.30;;;19.60;42.40;;;;;;5053778;28;20547;-80
2023/03/02 12:46:31;;;;;;;1.73;1.17;;;20.10;41.80;;;;;;5052254;28;20443;-79
2023/03/02 12:49:05;;;;;;;0.50;0.47;;;19.40;40.60;;;;;;5060439;28;20991;-80
2023/03/02 12:51:44;;;;;;;2.30;1.00;;;19.20;40.60;;;;;;5062171;28;20531;-80
2023/03/02 12:54:14;;;;;;;0.50;0.40;;;19.50;41.40;;;;;;5062077;28;20457;-80
2023/03/02 12:56:41;;;;;;;0.87;0.40;;;18.90;40.80;;;;;;5061490;28;20994;-79
2023/03/02 12:59:21;;;;;;;0.50;0.40;;;18.60;41.50;;;;;;5061052;28;20444;-79
2023/03/02 13:01:48;;;;;;;1.60;1.50;;;18.20;42.20;;;;;;5061645;28;20492;-79
2023/03/02 13:04:24;;;;;;;0.50;0.40;;;18.70;43.10;;;;;;5062210;28;20520;-80